Time;durP1;ratioP1;P1;durP2;ratioP2;P2;SDS_P1;SDS_P2;PMS_P1;PMS_P2;Temp;Humidity;BMP_temperature;BMP_pressure;BME280_temperature;BME280_humidity;BME280_pressure;Samples;Min_cycle;Max_cycle;Signal;HPM_P1;HPM_P2
2022/06/05 00:02:10;;;;;;;7.28;5.90;;;18.10;99.90;;;;;;5089334;28;20474;-53
2022/06/05 00:04:45;;;;;;;7.05;6.25;;;18.10;99.90;;;;;;5092234;28;20392;-55
2022/06/05 00:07:35;;;;;;;7.65;6.40;;;18.10;99.90;;;;;;5091403;28;20392;-57
2022/06/05 00:10:17;;;;;;;6.93;6.23;;;17.90;99.90;;;;;;5090734;28;20380;-57
2022/06/05 00:13:10;;;;;;;6.77;6.17;;;17.90;99.90;;;;;;5107443;28;21004;-57
2022/06/05 00:15:36;;;;;;;7.82;6.55;;;17.90;99.90;;;;;;5108841;28;20387;-56
2022/06/05 00:18:03;;;;;;;7.03;6.32;;;17.90;99.90;;;;;;5091778;28;20376;-57
2022/06/05 00:20:28;;;;;;;7.80;6.57;;;17.90;99.90;;;;;;5089262;28;20535;-57
2022/06/05 00:22:54;;;;;;;7.75;6.43;;;17.70;99.90;;;;;;5092637;28;20373;-55
2022/06/05 00:25:20;;;;;;;8.30;6.53;;;17.70;99.90;;;;;;5091395;28;20392;-58
2022/06/05 00:27:46;;;;;;;7.17;6.27;;;17.60;99.90;;;;;;5090473;28;20391;-57
2022/06/05 00:30:18;;;;;;;7.77;6.43;;;17.60;99.90;;;;;;5089890;28;20751;-58
2022/06/05 00:32:49;;;;;;;7.43;6.50;;;17.50;99.90;;;;;;5107263;28;20764;-57
2022/06/05 00:35:18;;;;;;;7.20;6.43;;;17.40;99.90;;;;;;5090975;28;20483;-56
2022/06/05 00:38:02;;;;;;;8.40;6.53;;;17.30;99.90;;;;;;5090934;28;20791;-56
2022/06/05 00:40:55;;;;;;;9.25;6.97;;;17.30;99.90;;;;;;5108646;28;20786;-56
2022/06/05 00:43:24;;;;;;;7.57;6.28;;;17.20;99.90;;;;;;5109206;28;20372;-57
2022/06/05 00:45:52;;;;;;;6.80;6.10;;;17.20;99.90;;;;;;5109332;28;20807;-57
2022/06/05 00:48:18;;;;;;;8.05;6.50;;;17.10;99.90;;;;;;5092928;28;20445;-58
2022/06/05 00:50:47;;;;;;;7.22;6.53;;;17.10;99.90;;;;;;5092848;28;20400;-57
2022/06/05 00:53:13;;;;;;;7.63;6.72;;;17.00;99.90;;;;;;5091659;28;20566;-56
2022/06/05 00:55:43;;;;;;;7.68;6.97;;;17.10;99.90;;;;;;5093811;28;20419;-56
2022/06/05 00:58:09;;;;;;;7.47;6.70;;;17.00;99.90;;;;;;5093063;28;20433;-57
2022/06/05 01:00:42;;;;;;;8.10;7.30;;;17.00;99.90;;;;;;5111214;28;20768;-57
2022/06/05 01:03:09;;;;;;;9.10;6.80;;;16.90;99.90;;;;;;5090395;28;20713;-56
2022/06/05 01:05:36;;;;;;;8.63;7.05;;;16.90;99.90;;;;;;5090243;28;20397;-55
2022/06/05 01:08:03;;;;;;;8.13;6.43;;;16.80;99.90;;;;;;5090100;28;20410;-56
2022/06/05 01:10:46;;;;;;;7.40;6.70;;;16.90;99.90;;;;;;5087711;28;20723;-55
2022/06/05 01:13:41;;;;;;;8.60;7.03;;;16.70;99.90;;;;;;5088602;28;20396;-55
2022/06/05 01:16:21;;;;;;;8.33;6.80;;;16.60;99.90;;;;;;5088903;28;20386;-55
2022/06/05 01:19:15;;;;;;;8.55;7.40;;;16.50;99.90;;;;;;5089736;28;20793;-53
2022/06/05 01:22:25;;;;;;;9.43;7.18;;;16.50;99.90;;;;;;5091841;28;20762;-57
2022/06/05 01:25:17;;;;;;;7.53;6.72;;;16.50;99.90;;;;;;5090187;28;20378;-55
2022/06/05 01:27:51;;;;;;;8.27;7.47;;;16.50;99.90;;;;;;5091536;28;20459;-58
2022/06/05 01:30:19;;;;;;;8.68;7.45;;;16.50;99.90;;;;;;5090889;28;20836;-56
2022/06/05 01:33:14;;;;;;;8.10;7.30;;;16.50;99.90;;;;;;5091978;28;20378;-54
2022/06/05 01:35:47;;;;;;;7.85;7.05;;;16.50;99.90;;;;;;5089559;28;20765;-53
2022/06/05 01:38:31;;;;;;;7.40;6.70;;;16.40;99.90;;;;;;5090970;28;20714;-55
2022/06/05 01:41:00;;;;;;;8.27;7.47;;;16.40;99.90;;;;;;5090711;28;20394;-56
2022/06/05 01:43:34;;;;;;;8.25;7.32;;;16.50;99.90;;;;;;5090884;28;20397;-56
2022/06/05 01:46:29;;;;;;;9.45;8.45;;;16.40;99.90;;;;;;5090460;28;20794;-57
2022/06/05 01:49:09;;;;;;;9.80;8.80;;;16.30;99.90;;;;;;5091244;28;20389;-55
2022/06/05 01:52:00;;;;;;;8.90;8.05;;;16.20;99.90;;;;;;5091389;28;20413;-58
2022/06/05 01:54:42;;;;;;;9.82;7.88;;;16.10;99.90;;;;;;5075334;28;20405;-57
2022/06/05 01:57:12;;;;;;;8.98;8.00;;;16.00;99.90;;;;;;5092499;28;20410;-54
2022/06/05 01:59:45;;;;;;;8.90;7.80;;;16.10;99.90;;;;;;5092849;28;20412;-54
2022/06/05 02:02:16;;;;;;;9.30;7.85;;;16.00;99.90;;;;;;5093324;28;20686;-57
2022/06/05 02:04:46;;;;;;;11.45;8.18;;;16.00;99.90;;;;;;5093269;28;20518;-56
2022/06/05 02:07:19;;;;;;;8.85;7.95;;;16.00;99.90;;;;;;5093592;28;20454;-57
2022/06/05 02:09:52;;;;;;;9.53;7.80;;;16.00;99.90;;;;;;5093106;28;20551;-57
2022/06/05 02:12:19;;;;;;;9.20;8.27;;;15.90;99.90;;;;;;5091897;28;20389;-55
2022/06/05 02:14:45;;;;;;;8.43;7.63;;;15.90;99.90;;;;;;5093948;28;20871;-55
2022/06/05 02:17:11;;;;;;;8.93;8.03;;;15.90;99.90;;;;;;5091623;28;20388;-55
2022/06/05 02:19:37;;;;;;;10.23;8.20;;;15.80;99.90;;;;;;5092416;28;20627;-55
2022/06/05 02:22:11;;;;;;;9.10;8.20;;;15.80;99.90;;;;;;5092287;28;20482;-57
2022/06/05 02:24:36;;;;;;;9.93;8.20;;;15.70;99.90;;;;;;5092745;28;20658;-57
2022/06/05 02:27:04;;;;;;;9.82;8.70;;;15.70;99.90;;;;;;5092008;28;20385;-57
2022/06/05 02:29:30;;;;;;;10.60;8.50;;;15.70;99.90;;;;;;5089717;28;20425;-57
2022/06/05 02:32:20;;;;;;;10.23;8.40;;;15.70;99.90;;;;;;5088231;28;20754;-56
2022/06/05 02:35:18;;;;;;;8.77;7.88;;;15.60;99.90;;;;;;5088087;28;20397;-57
2022/06/05 02:38:16;;;;;;;12.35;8.27;;;15.50;99.90;;;;;;5089628;28;20439;-53
2022/06/05 02:41:09;;;;;;;9.38;8.38;;;15.50;99.90;;;;;;5088503;28;20774;-56
2022/06/05 02:43:45;;;;;;;9.48;8.57;;;15.40;99.90;;;;;;5077090;28;20781;-55
2022/06/05 02:46:18;;;;;;;8.90;8.00;;;15.40;99.90;;;;;;5093192;28;20451;-56
2022/06/05 02:49:16;;;;;;;9.50;8.48;;;15.30;99.90;;;;;;5093270;28;20494;-54
2022/06/05 02:51:44;;;;;;;10.05;8.43;;;15.30;99.90;;;;;;5091756;28;20405;-53
2022/06/05 02:54:20;;;;;;;8.80;8.00;;;15.40;99.90;;;;;;5094018;28;20809;-56
2022/06/05 02:56:46;;;;;;;9.82;8.02;;;15.40;99.90;;;;;;5095422;28;20386;-55
2022/06/05 02:59:11;;;;;;;9.10;8.20;;;15.30;99.90;;;;;;5095774;28;20413;-56
2022/06/05 03:04:21;;;;;;;11.18;8.80;;;15.20;99.90;;;;;;5095586;28;20502;-54
2022/06/05 03:06:47;;;;;;;9.47;8.33;;;15.20;99.90;;;;;;5095210;28;20436;-56
2022/06/05 03:09:12;;;;;;;9.25;8.25;;;15.20;99.90;;;;;;5094469;28;20475;-56
2022/06/05 03:11:38;;;;;;;9.90;8.87;;;15.20;99.90;;;;;;5093740;28;20375;-56
2022/06/05 03:14:04;;;;;;;10.10;9.10;;;15.10;99.90;;;;;;5093400;28;20543;-54
2022/06/05 03:16:29;;;;;;;9.57;8.02;;;15.10;99.90;;;;;;5093703;28;20389;-56
2022/06/05 03:18:55;;;;;;;8.93;8.02;;;15.10;99.90;;;;;;5096124;28;20444;-50
2022/06/05 03:21:20;;;;;;;9.27;8.30;;;15.20;99.90;;;;;;5094877;28;20390;-57
2022/06/05 03:23:46;;;;;;;8.50;7.60;;;15.20;99.90;;;;;;5093717;28;20726;-57
2022/06/05 03:26:13;;;;;;;12.23;8.13;;;15.20;99.90;;;;;;5092768;28;20378;-56
2022/06/05 03:28:39;;;;;;;8.90;8.07;;;15.10;99.90;;;;;;5093242;28;20417;-56
2022/06/05 03:31:06;;;;;;;9.07;8.02;;;15.10;99.90;;;;;;5092214;28;20439;-55
2022/06/05 03:33:32;;;;;;;9.77;8.10;;;15.10;99.90;;;;;;5092433;28;20500;-54
2022/06/05 03:35:58;;;;;;;8.80;7.90;;;15.10;99.90;;;;;;5092175;28;20390;-57
2022/06/05 03:38:24;;;;;;;9.82;8.82;;;15.10;99.90;;;;;;5092357;28;20382;-55
2022/06/05 03:40:49;;;;;;;9.35;8.35;;;15.00;99.90;;;;;;5093075;28;20421;-55
2022/06/05 03:43:15;;;;;;;9.27;8.37;;;15.10;99.90;;;;;;5092737;28;20797;-57
2022/06/05 03:45:42;;;;;;;10.18;8.40;;;15.20;99.90;;;;;;5090738;28;20390;-57
2022/06/05 03:48:08;;;;;;;11.23;8.40;;;15.10;99.90;;;;;;5091127;28;20386;-57
2022/06/05 03:50:34;;;;;;;9.93;8.30;;;15.10;99.90;;;;;;5090762;28;20405;-58
2022/06/05 03:52:59;;;;;;;9.27;8.38;;;15.10;99.90;;;;;;5072716;28;20390;-58
2022/06/05 03:55:25;;;;;;;9.38;8.40;;;15.10;99.90;;;;;;5090527;28;20425;-55
2022/06/05 03:57:51;;;;;;;9.43;7.90;;;15.10;99.90;;;;;;5092161;28;20728;-58
2022/06/05 04:00:19;;;;;;;9.73;8.55;;;15.10;99.90;;;;;;5092089;28;20505;-56
2022/06/05 04:02:45;;;;;;;9.32;8.40;;;15.10;99.90;;;;;;5091118;28;20824;-57
2022/06/05 04:05:14;;;;;;;9.18;8.20;;;15.00;99.90;;;;;;5092195;28;20444;-56
2022/06/05 04:07:40;;;;;;;8.75;7.75;;;15.10;99.90;;;;;;5091395;28;20389;-58
2022/06/05 04:10:07;;;;;;;8.82;7.90;;;15.10;99.90;;;;;;5091165;28;20386;-60
2022/06/05 04:12:33;;;;;;;9.30;8.40;;;15.10;99.90;;;;;;5089527;28;20483;-55
2022/06/05 04:15:00;;;;;;;8.80;7.73;;;15.10;99.90;;;;;;5088202;28;20453;-55
2022/06/05 04:17:25;;;;;;;9.25;8.35;;;15.10;99.90;;;;;;5088944;28;20555;-57
2022/06/05 04:19:52;;;;;;;9.40;8.40;;;15.10;99.90;;;;;;5090586;28;20413;-58
2022/06/05 04:22:18;;;;;;;9.20;8.30;;;15.00;99.90;;;;;;5090839;28;20644;-56
2022/06/05 04:24:44;;;;;;;9.35;8.35;;;15.00;99.90;;;;;;5089685;28;20446;-53
2022/06/05 04:27:10;;;;;;;8.60;7.70;;;15.00;99.90;;;;;;5091273;28;20382;-57
2022/06/05 04:29:35;;;;;;;9.40;8.47;;;15.10;99.90;;;;;;5091912;28;20393;-56
2022/06/05 04:32:01;;;;;;;8.50;7.70;;;15.20;99.90;;;;;;5090623;28;20374;-55
2022/06/05 04:34:27;;;;;;;10.05;8.40;;;15.20;99.90;;;;;;5089954;28;20390;-54
2022/06/05 04:36:52;;;;;;;9.35;8.38;;;15.20;99.90;;;;;;5089454;28;20397;-54
2022/06/05 04:39:18;;;;;;;8.73;7.73;;;15.20;99.90;;;;;;5088728;28;20809;-57
2022/06/05 04:41:47;;;;;;;9.10;8.02;;;15.20;99.90;;;;;;5089373;28;20388;-56
2022/06/05 04:44:15;;;;;;;8.55;7.72;;;15.10;99.90;;;;;;5090909;28;20658;-56
2022/06/05 04:46:40;;;;;;;8.68;7.72;;;15.20;99.90;;;;;;5089342;28;20378;-57
2022/06/05 04:49:06;;;;;;;9.60;8.60;;;15.30;99.90;;;;;;5088843;28;20393;-57
2022/06/05 04:51:34;;;;;;;9.13;8.20;;;15.30;99.90;;;;;;5089373;28;20787;-57
2022/06/05 04:54:03;;;;;;;9.27;8.30;;;15.30;99.90;;;;;;5087506;28;20746;-55
2022/06/05 04:56:29;;;;;;;9.10;8.07;;;15.30;99.90;;;;;;5085816;28;20392;-56
2022/06/05 04:58:56;;;;;;;9.70;8.40;;;15.40;99.90;;;;;;5084007;28;20413;-57
2022/06/05 05:01:28;;;;;;;9.00;7.97;;;15.40;99.90;;;;;;5083628;28;20378;-57
2022/06/05 05:04:04;;;;;;;9.43;8.25;;;15.40;99.90;;;;;;5083182;28;20422;-57
2022/06/05 05:06:31;;;;;;;8.63;7.72;;;15.50;99.90;;;;;;5085096;28;20563;-56
2022/06/05 05:08:57;;;;;;;8.80;7.90;;;15.50;99.90;;;;;;5083426;28;20416;-56
2022/06/05 05:11:23;;;;;;;8.67;7.77;;;15.50;99.90;;;;;;5082982;28;20405;-54
2022/06/05 05:13:49;;;;;;;9.07;8.13;;;15.60;99.90;;;;;;5084924;28;20797;-56
2022/06/05 05:16:15;;;;;;;7.78;7.07;;;15.60;99.90;;;;;;5087543;28;20428;-56
2022/06/05 05:18:41;;;;;;;8.63;7.47;;;15.60;99.90;;;;;;5086691;28;20790;-59
2022/06/05 05:21:10;;;;;;;8.02;7.28;;;15.70;99.90;;;;;;5084354;28;20398;-54
2022/06/05 05:23:36;;;;;;;9.50;7.60;;;15.70;99.90;;;;;;5087010;28;20413;-55
2022/06/05 05:26:13;;;;;;;8.75;7.55;;;15.70;99.90;;;;;;5088395;28;20405;-54
2022/06/05 05:28:40;;;;;;;9.07;7.68;;;15.70;99.90;;;;;;5086563;28;20382;-56
2022/06/05 05:31:18;;;;;;;7.68;6.97;;;15.80;99.90;;;;;;5088223;28;20382;-51
2022/06/05 05:33:44;;;;;;;8.23;7.43;;;15.80;99.90;;;;;;5091533;28;20514;-51
2022/06/05 05:36:10;;;;;;;8.43;7.22;;;15.90;99.90;;;;;;5090792;28;20398;-55
2022/06/05 05:38:37;;;;;;;7.10;6.50;;;15.90;99.90;;;;;;5094078;28;20681;-57
2022/06/05 05:43:47;;;;;;;7.75;6.85;;;16.00;99.90;;;;;;5097142;28;20492;-55
2022/06/05 05:46:20;;;;;;;7.30;5.80;;;16.10;99.90;;;;;;5096211;28;20469;-56
2022/06/05 05:48:46;;;;;;;6.75;6.15;;;16.10;99.90;;;;;;5095231;28;20602;-57
2022/06/05 05:51:15;;;;;;;6.77;6.10;;;16.20;99.90;;;;;;5095028;28;21058;-57
2022/06/05 05:53:41;;;;;;;6.75;6.05;;;16.20;99.90;;;;;;5094499;28;20381;-56
2022/06/05 05:56:12;;;;;;;7.40;5.80;;;16.30;99.90;;;;;;5094944;28;20374;-54
2022/06/05 05:58:39;;;;;;;6.00;5.40;;;16.30;99.90;;;;;;5093358;28;20678;-57
2022/06/05 06:01:08;;;;;;;6.25;5.65;;;16.30;99.90;;;;;;5093071;28;20819;-55
2022/06/05 06:03:34;;;;;;;5.80;5.28;;;16.30;99.90;;;;;;5092767;28;20436;-54
2022/06/05 06:06:01;;;;;;;5.45;4.90;;;16.40;99.90;;;;;;5092591;28;20393;-55
2022/06/05 06:08:28;;;;;;;5.93;5.40;;;16.40;99.90;;;;;;5093279;28;20396;-56
2022/06/05 06:10:54;;;;;;;8.57;5.90;;;16.50;99.90;;;;;;5094309;28;20386;-54
2022/06/05 06:13:20;;;;;;;5.20;4.70;;;16.50;99.90;;;;;;5092571;28;20386;-54
2022/06/05 06:15:46;;;;;;;5.20;4.45;;;16.50;99.90;;;;;;5091937;28;21042;-54
2022/06/05 06:18:11;;;;;;;5.32;4.82;;;16.60;99.90;;;;;;5091892;28;20638;-56
2022/06/05 06:20:37;;;;;;;5.57;4.90;;;16.60;99.90;;;;;;5091536;28;20516;-54
2022/06/05 06:23:03;;;;;;;4.80;4.40;;;16.70;99.90;;;;;;5090831;28;20860;-54
2022/06/05 06:25:29;;;;;;;5.57;4.73;;;16.70;99.90;;;;;;5092244;28;20413;-55
2022/06/05 06:27:55;;;;;;;5.63;4.47;;;16.80;99.90;;;;;;5094191;28;20474;-56
2022/06/05 06:30:20;;;;;;;4.70;4.10;;;16.80;99.90;;;;;;5092889;28;20378;-58
2022/06/05 06:32:46;;;;;;;3.95;3.65;;;16.90;99.90;;;;;;5093272;28;20526;-55
2022/06/05 06:35:12;;;;;;;4.65;4.15;;;16.90;99.90;;;;;;5092573;28;20433;-57
2022/06/05 06:37:37;;;;;;;4.73;4.30;;;16.90;99.90;;;;;;5094002;28;20459;-52
2022/06/05 06:40:04;;;;;;;5.45;4.15;;;16.90;99.90;;;;;;5093265;28;20433;-52
2022/06/05 06:42:30;;;;;;;4.03;3.60;;;16.90;99.90;;;;;;5092524;28;20378;-55
2022/06/05 06:44:56;;;;;;;3.83;3.53;;;17.00;99.90;;;;;;5096472;28;20434;-57
2022/06/05 06:47:22;;;;;;;3.80;3.47;;;17.10;99.90;;;;;;5096374;28;20408;-54
2022/06/05 06:49:48;;;;;;;4.32;3.78;;;17.10;99.90;;;;;;5094422;28;20398;-55
2022/06/05 06:52:14;;;;;;;5.32;3.95;;;17.20;99.90;;;;;;5094432;28;20466;-56
2022/06/05 06:54:40;;;;;;;3.58;3.28;;;17.20;99.90;;;;;;5093920;28;20390;-53
2022/06/05 06:57:07;;;;;;;3.83;3.08;;;17.20;99.90;;;;;;5094775;28;20760;-57
2022/06/05 06:59:33;;;;;;;3.83;3.47;;;17.30;99.90;;;;;;5093356;28;20440;-57
2022/06/05 07:02:01;;;;;;;4.10;3.70;;;17.40;99.90;;;;;;5095288;28;20455;-52
2022/06/05 07:04:26;;;;;;;3.50;3.20;;;17.40;99.90;;;;;;5097961;28;20407;-57
2022/06/05 07:06:52;;;;;;;3.53;3.22;;;17.50;99.90;;;;;;5115489;28;20380;-56
2022/06/05 07:09:18;;;;;;;3.80;3.40;;;17.50;99.90;;;;;;5114886;28;20376;-57
2022/06/05 07:11:44;;;;;;;3.50;3.20;;;17.60;99.90;;;;;;5098103;28;20705;-57
2022/06/05 07:14:10;;;;;;;3.33;3.03;;;17.70;99.90;;;;;;5116227;28;20460;-57
2022/06/05 07:16:38;;;;;;;3.70;3.30;;;17.70;99.90;;;;;;5097516;28;20654;-53
2022/06/05 07:19:04;;;;;;;3.40;3.10;;;17.80;99.90;;;;;;5094850;28;20407;-57
2022/06/05 07:21:30;;;;;;;3.80;3.43;;;17.80;99.90;;;;;;5095431;28;20384;-56
2022/06/05 07:23:58;;;;;;;3.20;2.90;;;17.90;99.90;;;;;;5095031;28;20391;-56
2022/06/05 07:26:25;;;;;;;3.33;2.90;;;18.00;99.90;;;;;;5089416;28;20637;-53
2022/06/05 07:28:51;;;;;;;3.60;2.95;;;17.90;99.90;;;;;;5105548;28;20380;-57
2022/06/05 07:31:18;;;;;;;3.83;3.53;;;18.00;99.90;;;;;;5088147;28;20376;-54
2022/06/05 07:33:44;;;;;;;3.78;3.33;;;18.10;99.90;;;;;;5106997;28;20397;-55
2022/06/05 07:36:12;;;;;;;3.20;2.88;;;18.20;99.90;;;;;;5090013;28;20392;-54
2022/06/05 07:38:39;;;;;;;4.68;3.50;;;18.20;99.90;;;;;;5087848;28;20372;-53
2022/06/05 07:41:06;;;;;;;3.40;2.77;;;18.20;99.90;;;;;;5104623;28;20372;-57
2022/06/05 07:43:33;;;;;;;3.05;2.75;;;18.30;99.90;;;;;;5088774;28;20372;-56
2022/06/05 07:46:05;;;;;;;2.87;2.63;;;18.40;99.90;;;;;;5087362;28;20475;-57
2022/06/05 07:48:31;;;;;;;2.85;2.65;;;18.40;99.90;;;;;;5083939;28;20384;-55
2022/06/05 07:56:31;;;;;;;3.38;3.08;;;18.50;99.90;;;;;;5102150;28;20872;-50
2022/06/05 07:58:57;;;;;;;3.15;2.85;;;18.60;99.90;;;;;;5102828;28;20403;-55
2022/06/05 08:01:23;;;;;;;2.97;2.73;;;18.70;99.90;;;;;;5083410;28;20962;-55
2022/06/05 08:03:48;;;;;;;2.83;2.63;;;18.70;99.90;;;;;;5085303;28;20408;-55
2022/06/05 08:06:14;;;;;;;3.85;2.88;;;18.80;99.90;;;;;;5084087;28;20392;-54
2022/06/05 08:08:39;;;;;;;2.43;2.23;;;18.80;99.90;;;;;;5085272;28;20679;-53
2022/06/05 08:11:06;;;;;;;2.85;2.55;;;18.80;99.90;;;;;;5087411;28;20739;-54
2022/06/05 08:13:32;;;;;;;3.03;2.42;;;18.90;99.90;;;;;;5107089;28;20386;-55
2022/06/05 08:15:58;;;;;;;2.38;1.90;;;19.00;99.90;;;;;;5088655;28;20627;-55
2022/06/05 08:18:23;;;;;;;4.00;2.72;;;19.00;99.90;;;;;;5105150;28;20479;-55
2022/06/05 08:20:49;;;;;;;3.53;2.43;;;19.10;99.90;;;;;;5086464;28;20443;-55
2022/06/05 08:23:15;;;;;;;3.53;2.50;;;19.20;99.90;;;;;;5084617;28;20639;-57
2022/06/05 08:25:41;;;;;;;2.53;2.33;;;19.20;99.90;;;;;;5086118;28;20960;-54
2022/06/05 08:28:08;;;;;;;2.70;2.50;;;19.20;99.90;;;;;;5103842;28;20471;-56
2022/06/05 08:30:35;;;;;;;2.40;2.20;;;19.30;99.90;;;;;;5105458;28;20387;-55
2022/06/05 08:33:00;;;;;;;4.47;2.47;;;19.30;99.90;;;;;;5086725;28;20376;-56
2022/06/05 08:35:26;;;;;;;4.20;2.50;;;19.40;99.90;;;;;;5085682;28;20660;-54
2022/06/05 08:43:31;;;;;;;3.20;2.60;;;19.50;99.90;;;;;;5102100;28;21034;-55
2022/06/05 08:46:10;;;;;;;2.80;2.40;;;19.50;99.90;;;;;;5082254;28;20428;-57
2022/06/05 08:48:57;;;;;;;3.10;2.40;;;19.60;99.90;;;;;;5084365;28;20433;-57
2022/06/05 08:51:28;;;;;;;2.45;2.25;;;19.70;99.90;;;;;;5083485;28;20415;-57
2022/06/05 08:54:06;;;;;;;3.40;3.10;;;19.70;99.90;;;;;;5084131;28;20468;-52
2022/06/05 08:56:39;;;;;;;2.40;2.20;;;19.70;99.90;;;;;;5083618;28;20634;-57
2022/06/05 08:59:31;;;;;;;2.20;2.00;;;19.80;99.90;;;;;;5082611;28;20530;-54
2022/06/05 09:02:32;;;;;;;2.50;2.30;;;19.80;99.90;;;;;;5080862;28;20376;-55
2022/06/05 09:05:08;;;;;;;3.10;2.80;;;19.90;99.90;;;;;;5081657;28;20472;-55
2022/06/05 09:07:47;;;;;;;4.13;2.70;;;20.00;99.90;;;;;;5085237;28;20443;-52
2022/06/05 09:10:46;;;;;;;3.10;2.80;;;20.00;99.90;;;;;;5085868;28;20472;-53
2022/06/05 09:13:20;;;;;;;3.35;2.63;;;20.10;99.90;;;;;;5080213;28;20487;-54
2022/06/05 09:15:55;;;;;;;2.67;2.42;;;20.10;99.90;;;;;;5103749;28;20988;-55
2022/06/05 09:18:23;;;;;;;2.38;2.17;;;20.20;99.90;;;;;;5088062;28;20445;-53
2022/06/05 09:20:56;;;;;;;2.70;2.50;;;20.30;99.90;;;;;;5090949;28;20503;-54
2022/06/05 09:23:45;;;;;;;2.80;2.40;;;20.30;99.90;;;;;;5090592;28;20396;-55
2022/06/05 09:26:43;;;;;;;3.05;2.80;;;20.30;99.90;;;;;;5090222;28;20368;-54
2022/06/05 09:29:21;;;;;;;2.80;2.60;;;20.40;99.90;;;;;;5088008;28;20718;-56
2022/06/05 09:31:52;;;;;;;2.70;2.50;;;20.50;99.90;;;;;;5085689;28;20490;-56
2022/06/05 09:34:23;;;;;;;3.15;2.42;;;20.60;99.90;;;;;;5082715;28;20392;-57
2022/06/05 09:37:16;;;;;;;3.13;2.60;;;20.70;99.90;;;;;;5084634;28;20422;-54
2022/06/05 09:39:51;;;;;;;2.42;2.22;;;20.70;99.90;;;;;;5084015;28;20638;-56
2022/06/05 09:42:32;;;;;;;2.42;2.22;;;20.80;99.90;;;;;;5083683;28;20407;-53
2022/06/05 09:45:13;;;;;;;3.10;2.40;;;20.80;99.90;;;;;;5084823;28;20444;-54
2022/06/05 09:47:49;;;;;;;3.00;2.50;;;21.00;99.90;;;;;;5089373;28;20780;-54
2022/06/05 09:50:26;;;;;;;2.58;2.38;;;21.10;99.90;;;;;;5106668;28;20452;-53
2022/06/05 09:52:52;;;;;;;8.17;5.77;;;21.00;99.90;;;;;;5110084;28;20424;-55
2022/06/05 09:55:41;;;;;;;4.20;3.17;;;21.20;99.90;;;;;;5109660;28;20444;-52
2022/06/05 09:58:24;;;;;;;3.15;2.85;;;21.20;99.90;;;;;;5089858;28;20728;-56
2022/06/05 10:00:53;;;;;;;2.72;2.53;;;21.30;99.90;;;;;;5090581;28;20832;-54
2022/06/05 10:03:32;;;;;;;4.57;4.17;;;21.40;99.90;;;;;;5090499;28;20465;-57
2022/06/05 10:06:20;;;;;;;4.45;3.53;;;21.50;99.90;;;;;;5089168;28;20400;-53
2022/06/05 10:08:50;;;;;;;3.33;3.03;;;21.50;99.90;;;;;;5088759;28;20464;-56
2022/06/05 10:11:29;;;;;;;3.13;2.83;;;21.50;99.90;;;;;;5105227;28;20373;-53
2022/06/05 10:14:21;;;;;;;3.40;3.10;;;21.70;99.90;;;;;;5103636;28;20479;-55
2022/06/05 10:17:30;;;;;;;7.72;6.85;;;21.70;99.90;;;;;;5085130;28;20369;-52
2022/06/05 10:20:32;;;;;;;3.20;2.90;;;21.80;99.90;;;;;;5060261;28;20829;-56
2022/06/05 10:23:36;;;;;;;3.67;3.10;;;21.90;99.90;;;;;;5087049;28;20377;-55
2022/06/05 10:26:04;;;;;;;2.80;2.60;;;21.90;99.90;;;;;;5090586;28;20699;-54
2022/06/05 10:28:35;;;;;;;2.83;2.63;;;22.00;99.90;;;;;;5091609;28;20740;-56
2022/06/05 10:31:08;;;;;;;3.10;2.80;;;22.00;99.90;;;;;;5108795;28;20386;-55
2022/06/05 10:33:39;;;;;;;3.58;2.80;;;22.10;99.90;;;;;;5108868;28;20387;-55
2022/06/05 10:36:34;;;;;;;4.95;3.30;;;22.20;99.90;;;;;;5090215;28;20811;-55
2022/06/05 10:39:17;;;;;;;3.20;2.55;;;22.10;99.90;;;;;;5086180;28;20683;-55
2022/06/05 10:41:52;;;;;;;2.72;2.22;;;22.20;99.90;;;;;;5086601;28;20768;-55
2022/06/05 10:44:27;;;;;;;3.20;2.45;;;22.20;99.90;;;;;;5087504;28;20389;-55
2022/06/05 10:47:10;;;;;;;3.00;2.65;;;22.30;99.90;;;;;;5086796;28;20382;-57
2022/06/05 10:49:58;;;;;;;4.15;3.70;;;22.40;99.90;;;;;;5086220;28;20642;-56
2022/06/05 10:52:29;;;;;;;2.92;2.60;;;22.40;99.90;;;;;;5082953;28;20423;-57
2022/06/05 10:55:17;;;;;;;2.92;2.60;;;22.40;99.90;;;;;;5100701;28;20407;-55
2022/06/05 10:58:09;;;;;;;2.97;2.60;;;22.60;99.90;;;;;;5084992;28;20640;-52
2022/06/05 11:00:58;;;;;;;2.13;2.00;;;22.60;99.90;;;;;;5080981;28;20430;-54
2022/06/05 11:04:59;;;;;;;3.03;2.72;;;22.70;99.90;;;;;;5099553;27;20800;-56
2022/06/05 11:07:46;;;;;;;2.50;2.30;;;22.90;99.90;;;;;;5102848;28;20412;-56
2022/06/05 11:14:24;;;;;;;2.38;2.17;;;22.90;99.90;;;;;;5090215;28;20459;-51
2022/06/05 11:17:19;;;;;;;3.55;2.60;;;23.00;99.90;;;;;;5102283;28;20374;-57
2022/06/05 11:19:50;;;;;;;2.50;2.30;;;23.00;99.90;;;;;;5103240;28;21035;-54
2022/06/05 11:22:18;;;;;;;2.40;2.05;;;23.10;99.90;;;;;;5096554;28;20381;-55
2022/06/05 11:25:09;;;;;;;2.83;2.30;;;23.20;99.90;;;;;;5096923;28;20792;-55
2022/06/05 11:27:51;;;;;;;2.43;2.23;;;23.20;99.90;;;;;;5099872;28;20385;-57
2022/06/05 11:30:33;;;;;;;2.40;2.20;;;23.30;99.90;;;;;;5099178;28;20513;-57
2022/06/05 11:33:07;;;;;;;2.00;1.90;;;23.40;99.90;;;;;;5097450;28;20551;-53
2022/06/05 11:35:39;;;;;;;3.10;2.80;;;23.50;99.90;;;;;;5096083;28;20641;-51
2022/06/05 11:38:11;;;;;;;2.70;2.20;;;23.70;99.90;;;;;;5096762;28;20401;-53
2022/06/05 11:41:03;;;;;;;2.25;2.03;;;23.80;99.90;;;;;;5095965;28;20388;-53
2022/06/05 11:43:35;;;;;;;2.42;2.08;;;24.00;99.90;;;;;;5093611;28;20432;-55
2022/06/05 11:46:26;;;;;;;2.45;2.20;;;24.10;99.90;;;;;;5094138;28;20454;-56
2022/06/05 11:49:06;;;;;;;2.35;1.98;;;24.20;99.90;;;;;;5094610;28;20428;-53
2022/06/05 11:51:39;;;;;;;1.83;1.73;;;24.50;99.90;;;;;;5089597;28;20474;-57
2022/06/05 11:54:15;;;;;;;2.63;1.80;;;24.60;99.90;;;;;;5090409;28;20576;-56
2022/06/05 11:57:03;;;;;;;3.17;1.77;;;24.80;99.90;;;;;;5088248;28;20396;-58
2022/06/05 11:59:39;;;;;;;2.85;1.92;;;24.90;99.90;;;;;;5089536;28;20446;-54
2022/06/05 12:02:08;;;;;;;1.92;1.80;;;25.10;99.90;;;;;;5088388;28;20383;-57
2022/06/05 12:04:48;;;;;;;1.73;1.63;;;25.20;99.90;;;;;;5090328;28;20393;-56
2022/06/05 12:07:17;;;;;;;1.73;1.63;;;25.40;99.90;;;;;;5091994;28;20701;-53
2022/06/05 12:10:06;;;;;;;2.42;1.67;;;25.50;99.90;;;;;;5094290;28;20820;-53
2022/06/05 12:12:56;;;;;;;3.05;1.90;;;25.60;99.90;;;;;;5094672;28;20642;-55
2022/06/05 12:15:25;;;;;;;2.60;1.70;;;25.60;99.90;;;;;;5084997;28;21083;-52
2022/06/05 12:18:12;;;;;;;1.60;1.50;;;25.70;99.90;;;;;;5083984;28;20537;-54
2022/06/05 12:20:52;;;;;;;1.92;1.77;;;25.90;99.90;;;;;;5084891;28;20503;-55
2022/06/05 12:23:26;;;;;;;2.70;2.00;;;25.90;99.90;;;;;;5084118;28;20805;-56
2022/06/05 12:25:55;;;;;;;1.70;1.60;;;25.90;99.90;;;;;;5082970;28;20658;-55
2022/06/05 12:28:31;;;;;;;2.30;2.10;;;25.80;99.90;;;;;;5083702;28;20491;-58
2022/06/05 12:31:15;;;;;;;4.90;2.58;;;25.70;99.90;;;;;;5084234;28;20827;-57
2022/06/05 12:33:40;;;;;;;7.28;2.42;;;25.50;99.90;;;;;;5085076;28;20398;-55
2022/06/05 12:36:24;;;;;;;2.88;2.28;;;25.40;99.90;;;;;;5087120;28;20407;-56
2022/06/05 12:39:01;;;;;;;2.40;1.90;;;25.50;99.90;;;;;;5085656;28;20485;-53
2022/06/05 12:41:52;;;;;;;2.30;2.10;;;25.70;99.90;;;;;;5084822;28;20634;-58
2022/06/05 12:44:33;;;;;;;2.30;2.10;;;25.70;99.90;;;;;;5085922;28;20632;-58
2022/06/05 12:47:16;;;;;;;3.03;2.00;;;25.80;99.90;;;;;;5086178;28;20771;-56
2022/06/05 12:49:54;;;;;;;3.60;2.08;;;25.80;99.90;;;;;;5083603;28;20440;-58
2022/06/05 12:52:41;;;;;;;2.35;1.80;;;25.90;99.90;;;;;;5081679;28;20385;-57
2022/06/05 12:55:22;;;;;;;3.47;1.90;;;25.80;99.90;;;;;;5080713;28;20525;-57
2022/06/05 12:57:53;;;;;;;1.40;1.30;;;25.90;99.90;;;;;;5080095;28;20746;-58
2022/06/05 13:00:45;;;;;;;1.42;1.33;;;26.20;99.90;;;;;;5078690;28;20797;-55
2022/06/05 13:03:38;;;;;;;2.20;1.50;;;26.50;99.90;;;;;;5081202;28;20548;-56
2022/06/05 13:06:07;;;;;;;1.53;1.40;;;26.70;99.90;;;;;;5083695;28;20382;-56
2022/06/05 13:08:50;;;;;;;1.67;1.50;;;26.80;99.90;;;;;;5082089;28;20473;-57
2022/06/05 13:11:18;;;;;;;2.15;1.95;;;27.00;99.90;;;;;;5082039;28;20385;-56
2022/06/05 13:14:02;;;;;;;2.47;2.07;;;27.10;99.90;;;;;;5082905;28;20773;-57
2022/06/05 13:16:55;;;;;;;2.15;1.95;;;27.30;99.90;;;;;;5082476;28;20794;-55
2022/06/05 13:19:32;;;;;;;3.58;1.80;;;27.30;99.90;;;;;;5082238;28;20382;-57
2022/06/05 13:22:00;;;;;;;2.40;2.20;;;27.30;99.90;;;;;;5082427;28;20381;-55
2022/06/05 13:24:45;;;;;;;2.65;1.90;;;27.30;99.90;;;;;;5081365;28;20401;-58
2022/06/05 13:27:30;;;;;;;1.88;1.63;;;27.30;99.90;;;;;;5083007;28;20382;-55
2022/06/05 13:30:01;;;;;;;3.10;1.50;;;27.30;99.90;;;;;;5084624;28;20450;-57
2022/06/05 13:32:44;;;;;;;1.45;1.35;;;27.30;99.30;;;;;;5084471;28;20615;-57
2022/06/05 13:35:12;;;;;;;1.35;1.25;;;27.30;99.40;;;;;;5084766;28;20390;-55
2022/06/05 13:37:52;;;;;;;2.40;1.60;;;27.20;98.00;;;;;;5082245;28;20477;-56
2022/06/05 13:40:36;;;;;;;1.65;1.33;;;27.10;98.80;;;;;;5084369;28;20500;-54